Airfield :
LOGIN :

Register | Disclaimer

   EN    FR    IT 

 










Legend :    VFR   Marginal VFR   IFR   Intensive IFR   Very Intensive IFR
Visi :
Ceiling :
>= 8 km
>= 3000ft
5 to 8 km
1000 to 3000 ft
1500m to 5 km
500 to 1000 ft
800 to 1500m
200 to 500 ft
< 800m
< 200 ft
Symbols :   Thunderstorms  Fog  Heavy snow  Heavy precipitations  Wind > 20 kt
SIGMETs :     Misc.  Thunderstorms  Icing  Turbulence  Mountain Waves  Volcanic Ashes







- Airport Elevation : 147 ft
- IATA code : DUS


EDDL - Düsseldorf Int.

CURRENT METAR :
  • 161220Z 21016KT 9999 FEW020 BKN025 06/01 Q1009 NOSIG

EXPIRED METARs :
  • 161150Z 22017KT 9999 FEW020 BKN025 06/01 Q1010 NOSIG
  • 161120Z 21019KT 9999 FEW020 BKN025 06/02 Q1010 NOSIG
  • 161050Z 22019KT 9999 FEW020 BKN025 06/02 Q1011 NOSIG
  • 161020Z 21018G28KT 9999 FEW020 BKN025 06/01 Q1011 NOSIG
  • 160950Z 21019KT 9999 FEW020 BKN030 06/02 Q1011 NOSIG

TAF TAF EDDL
Valid from the 16 at 12:00 until the 17 at 18:00 UTC


161100Z 1612/1718 20014KT 9999 BKN025
TEMPO 1612/1616 20020G30KT
TEMPO 1622/1703 22015G25KT RA BKN014
TEMPO 1708/1718 25020G30KT SHRA BKN015CB
BECMG 1709/1712 27013KT
PROB30
TEMPO 1712/1716 TSRAGS
No reported NOTAMs for that airfield.



MET'MAP, your aeronautical weather chart ! - Copyright ORBIFLY December 2007 - Disclaimer

ORBIFLY MET'MAP TEAM :

Programming & Development : Alexandra Zaïnal
Concept & Development : Baudouin d'Aumeries
Co-Development & Prog : Marc-Olivier Méhu
Technical & hardware support : Manuel Goepfert

Contact : metmap@orbifly.com




SOURCES & CREDITS :

   NOAA